South Berwick, Maine
Current Conditions -  °F | °C
As of 8:51 PM on Tuesday 25 Nov 2014 (Local Time) from KDAW Reporting Station
Clear Clear  
Wind Chill: 44°   Ceiling: Unl
Heat Index: 44°   Visibility: 10mi
Dew Point: 26°   Wind: 0mph
Humidity: 49%   Direction: NA
Pressure: 30.02"   Gusts: NA
Location:  43.23°N, 70.81°W
Report Text: KDAW 260151Z AUTO 00000KT 10SM CLR 07/M03 A3002 RMK AO2 SLP163 T00671033
Loading
Personal Weather Stations






























Interactive Weather Map New forecast layout! Learn more

10-Day Weather Forecast

Advertisements
Track Severe Weather on mobile